Time;durP1;ratioP1;P1;durP2;ratioP2;P2;SDS_P1;SDS_P2;PMS_P1;PMS_P2;Temp;Humidity;BMP_temperature;BMP_pressure;BME280_temperature;BME280_humidity;BME280_pressure;Samples;Min_cycle;Max_cycle;Signal;HPM_P1;HPM_P2
2022/04/17 00:01:14;;;;;;;1.00;0.90;;;;;;;19.72;38.94;98133.97;10594686;28;20043;-55
2022/04/17 00:06:33;;;;;;;1.10;1.00;;;;;;;19.70;38.97;98134.22;10594464;28;20112;-55
2022/04/17 00:11:52;;;;;;;0.98;0.82;;;;;;;19.70;38.95;98130.72;10580722;28;20115;-53
2022/04/17 00:17:13;;;;;;;1.77;0.80;;;;;;;19.68;38.92;98122.91;10580478;28;20047;-53
2022/04/17 00:22:32;;;;;;;0.82;0.80;;;;;;;19.67;38.98;98123.19;10580234;28;20403;-54
2022/04/17 00:27:51;;;;;;;0.80;0.80;;;;;;;19.65;39.06;98117.28;10579845;28;20414;-53
2022/04/17 00:33:11;;;;;;;1.95;0.90;;;;;;;19.64;39.01;98119.19;10590789;27;20055;-52
2022/04/17 00:38:30;;;;;;;1.50;0.98;;;;;;;19.64;39.07;98115.66;10622358;27;20127;-52
2022/04/17 00:43:50;;;;;;;0.70;0.70;;;;;;;19.62;38.94;98101.63;10621175;27;20418;-54
2022/04/17 00:49:10;;;;;;;0.80;0.80;;;;;;;19.61;39.07;98098.13;10621277;27;20414;-53
2022/04/17 00:54:30;;;;;;;1.17;0.82;;;;;;;19.59;39.00;98088.72;10621552;27;20092;-53
2022/04/17 00:59:50;;;;;;;1.02;0.93;;;;;;;19.58;39.00;98082.47;10575612;28;20063;-53
2022/04/17 01:05:09;;;;;;;0.77;0.77;;;;;;;19.56;38.92;98074.69;10577761;28;20100;-52
2022/04/17 01:10:28;;;;;;;0.75;0.70;;;;;;;19.55;39.03;98080.38;10577860;28;20060;-53
2022/04/17 01:15:49;;;;;;;0.90;0.80;;;;;;;19.55;39.02;98081.19;10592439;28;20039;-53
2022/04/17 01:21:08;;;;;;;1.20;0.90;;;;;;;19.53;39.05;98075.25;10577794;28;20070;-55
2022/04/17 01:32:08;;;;;;;1.48;0.93;;;;;;;19.50;39.04;98058.81;10579632;28;20056;-55
2022/04/17 01:37:28;;;;;;;0.93;0.85;;;;;;;19.50;39.00;98058.81;10621021;28;20047;-53
2022/04/17 01:42:47;;;;;;;0.93;0.82;;;;;;;19.49;39.08;98055.31;10619894;28;20059;-54
2022/04/17 01:48:07;;;;;;;0.80;0.80;;;;;;;19.46;39.15;98055.91;10634340;27;20450;-55
2022/04/17 01:53:27;;;;;;;1.13;0.93;;;;;;;19.46;39.02;98060.50;10620444;28;20071;-53
2022/04/17 01:58:46;;;;;;;1.10;1.00;;;;;;;19.43;39.01;98053.78;10617332;28;20108;-53
2022/04/17 02:04:07;;;;;;;0.90;0.75;;;;;;;19.42;39.14;98046.78;10620306;28;20047;-53
2022/04/17 02:09:27;;;;;;;1.10;1.00;;;;;;;19.42;39.09;98046.78;10620285;28;20409;-55
2022/04/17 02:14:47;;;;;;;0.98;0.88;;;;;;;19.41;39.19;98038.97;10620183;28;20051;-53
2022/04/17 02:20:08;;;;;;;1.48;0.90;;;;;;;19.40;39.15;98035.44;10623715;27;20054;-56
2022/04/17 02:25:27;;;;;;;1.02;0.90;;;;;;;19.39;39.15;98031.16;10627309;27;20100;-52
2022/04/17 02:30:47;;;;;;;0.70;0.70;;;;;;;19.36;39.04;98020.91;10626776;27;20080;-53
2022/04/17 02:36:06;;;;;;;1.00;0.98;;;;;;;19.36;39.10;98027.13;10626349;27;20055;-52
2022/04/17 02:41:26;;;;;;;1.33;0.90;;;;;;;19.35;39.05;98022.03;10626595;27;20055;-54
2022/04/17 02:52:24;;;;;;;0.83;0.83;;;;;;;19.32;39.05;98025.31;10625057;27;20059;-53
2022/04/17 02:57:43;;;;;;;1.00;0.82;;;;;;;19.30;39.10;98011.28;10637442;27;20296;-52
2022/04/17 03:08:41;;;;;;;1.03;0.93;;;;;;;19.28;39.25;98008.09;10625398;27;20035;-52
2022/04/17 03:14:01;;;;;;;1.02;0.82;;;;;;;19.28;39.16;98008.09;10639315;27;20050;-54
2022/04/17 03:19:21;;;;;;;0.88;0.85;;;;;;;19.25;39.09;98000.53;10639094;27;20039;-54
2022/04/17 03:24:40;;;;;;;0.98;0.88;;;;;;;19.25;39.06;97997.84;10625008;27;20435;-53
2022/04/17 03:30:00;;;;;;;1.02;0.77;;;;;;;19.24;39.10;97998.97;10624568;27;20490;-55
2022/04/17 03:35:19;;;;;;;1.00;0.90;;;;;;;19.22;39.10;97995.75;10624664;27;20132;-55
2022/04/17 03:40:39;;;;;;;0.90;0.80;;;;;;;19.21;39.19;97991.41;10624480;27;20065;-53
2022/04/17 03:45:59;;;;;;;0.90;0.90;;;;;;;19.20;39.25;97996.03;10624277;27;20054;-53
2022/04/17 03:51:18;;;;;;;1.10;1.00;;;;;;;19.20;39.24;97997.94;10637041;27;20043;-53
2022/04/17 03:56:37;;;;;;;0.80;0.80;;;;;;;19.17;39.15;97993.94;10621417;27;20471;-53
2022/04/17 04:01:58;;;;;;;0.95;0.93;;;;;;;19.16;39.26;97993.09;10623690;27;20059;-54
2022/04/17 04:07:17;;;;;;;2.25;0.90;;;;;;;19.17;39.12;97999.34;10623362;27;20536;-55
2022/04/17 04:12:37;;;;;;;1.38;0.90;;;;;;;19.13;39.23;97996.41;10623259;27;20414;-53
2022/04/17 04:17:57;;;;;;;1.15;1.05;;;;;;;19.13;39.09;98003.69;10622942;27;20076;-55
2022/04/17 04:23:19;;;;;;;0.80;0.80;;;;;;;19.11;39.32;98001.31;10622813;27;20043;-52
2022/04/17 04:28:38;;;;;;;0.98;0.88;;;;;;;19.10;39.10;97991.59;10622595;27;20444;-54
2022/04/17 04:33:58;;;;;;;1.00;0.77;;;;;;;19.10;39.16;97986.19;10622231;27;20451;-52
2022/04/17 04:39:17;;;;;;;1.00;0.90;;;;;;;19.09;39.29;97984.59;10621445;27;20062;-52
2022/04/17 04:44:36;;;;;;;1.08;0.98;;;;;;;19.08;39.13;97993.78;10620696;27;20047;-55
2022/04/17 04:49:56;;;;;;;1.10;1.00;;;;;;;19.07;39.20;97997.59;10634685;27;20039;-53
2022/04/17 04:55:15;;;;;;;1.00;0.90;;;;;;;19.07;39.20;97991.34;10621857;27;20050;-52
2022/04/17 05:00:35;;;;;;;0.70;0.70;;;;;;;19.08;38.92;97991.06;10619745;27;20063;-52
2022/04/17 05:05:54;;;;;;;1.08;0.95;;;;;;;19.09;39.10;97989.16;10621461;27;20043;-54
2022/04/17 05:11:14;;;;;;;1.15;0.90;;;;;;;19.11;39.11;97984.28;10621494;28;20051;-55
2022/04/17 05:16:33;;;;;;;0.80;0.80;;;;;;;19.12;38.98;97978.59;10634982;27;20047;-54
2022/04/17 05:21:58;;;;;;;1.02;1.00;;;;;;;19.15;38.98;97983.41;10634866;27;20047;-55
2022/04/17 05:27:17;;;;;;;1.00;0.95;;;;;;;19.20;38.96;97984.44;10620202;28;20043;-54
2022/04/17 05:32:37;;;;;;;0.95;0.90;;;;;;;19.22;38.92;97976.84;10620724;28;20054;-53
2022/04/17 05:37:57;;;;;;;1.50;0.95;;;;;;;19.25;38.80;97984.34;10620461;28;20467;-54
2022/04/17 05:43:18;;;;;;;1.15;0.90;;;;;;;19.27;38.86;97984.88;10619687;28;20063;-54
2022/04/17 05:48:37;;;;;;;1.05;0.80;;;;;;;19.32;38.87;97988.28;10633496;27;20035;-54
2022/04/17 05:53:57;;;;;;;0.90;0.90;;;;;;;19.37;38.85;97987.41;10623945;27;20107;-55
2022/04/17 05:59:16;;;;;;;1.00;0.90;;;;;;;19.42;38.75;97986.53;10625407;27;20126;-52
2022/04/17 06:04:35;;;;;;;0.90;0.90;;;;;;;19.46;38.72;97982.94;10620127;27;20401;-55
2022/04/17 06:09:55;;;;;;;1.05;1.00;;;;;;;19.51;38.73;97974.75;10623880;27;20043;-55
2022/04/17 06:15:14;;;;;;;1.10;0.95;;;;;;;19.55;38.60;97981.16;10627488;27;20069;-54
2022/04/17 06:20:34;;;;;;;1.08;0.90;;;;;;;19.60;38.57;97982.19;10627398;27;20421;-55
2022/04/17 06:25:54;;;;;;;0.80;0.80;;;;;;;19.65;38.66;97987.50;10626606;27;20069;-53
2022/04/17 06:31:13;;;;;;;0.98;0.90;;;;;;;19.69;38.55;97988.53;10627155;27;20414;-54
2022/04/17 06:36:33;;;;;;;1.10;1.00;;;;;;;19.74;38.59;97989.28;10626658;27;20088;-52
2022/04/17 06:41:54;;;;;;;1.10;1.00;;;;;;;19.79;38.55;97988.38;10584099;28;20060;-55
2022/04/17 06:47:18;;;;;;;2.13;0.90;;;;;;;19.85;38.46;97980.97;10568615;28;20483;-55
2022/04/17 06:52:38;;;;;;;1.13;1.00;;;;;;;19.90;38.44;97980.91;10583823;28;20542;-56
2022/04/17 06:57:57;;;;;;;1.33;1.00;;;;;;;19.93;38.38;97974.88;10583785;28;20427;-55
2022/04/17 07:03:16;;;;;;;1.15;1.05;;;;;;;19.98;38.47;97979.41;10582013;28;20391;-55
2022/04/17 07:08:36;;;;;;;1.00;0.90;;;;;;;20.03;38.34;97971.19;10582952;28;20055;-54
2022/04/17 07:13:56;;;;;;;1.00;0.90;;;;;;;20.08;38.31;97971.91;10607857;27;20043;-55
2022/04/17 07:19:16;;;;;;;0.82;0.82;;;;;;;20.11;38.30;97973.19;10624846;27;20051;-55
2022/04/17 07:24:37;;;;;;;1.20;0.90;;;;;;;20.14;38.34;97970.69;10636731;27;20409;-54
2022/04/17 07:29:57;;;;;;;1.00;0.90;;;;;;;20.19;38.25;97967.13;10624898;27;20059;-55
2022/04/17 07:35:18;;;;;;;1.00;0.90;;;;;;;20.20;38.34;97974.13;10624486;27;20047;-52
2022/04/17 07:40:38;;;;;;;0.80;0.80;;;;;;;20.24;38.38;97969.72;10638131;27;20039;-55
2022/04/17 07:45:58;;;;;;;1.23;1.00;;;;;;;20.25;38.26;97960.50;10623944;27;20051;-56
2022/04/17 07:51:17;;;;;;;0.95;0.90;;;;;;;20.28;38.18;97959.09;10608604;27;20104;-56
2022/04/17 07:56:37;;;;;;;0.98;0.80;;;;;;;20.29;38.25;97961.50;10623754;27;20453;-53
2022/04/17 08:02:11;;;;;;;0.98;0.90;;;;;;;20.30;38.23;97954.19;10622724;27;20055;-54
2022/04/17 08:07:30;;;;;;;0.93;0.85;;;;;;;20.34;38.27;97964.09;10616275;27;20051;-53
2022/04/17 08:12:51;;;;;;;0.80;0.80;;;;;;;20.35;38.27;97964.91;10595974;27;20421;-55
2022/04/17 08:18:10;;;;;;;0.90;0.90;;;;;;;20.35;38.37;97959.50;10622838;27;20039;-53
2022/04/17 08:23:30;;;;;;;0.90;0.90;;;;;;;20.37;38.36;97957.28;10622459;27;20059;-54
2022/04/17 08:28:50;;;;;;;0.93;0.80;;;;;;;20.38;38.32;97958.88;10622135;27;20486;-56
2022/04/17 08:34:09;;;;;;;0.70;0.70;;;;;;;20.38;38.33;97958.88;10615062;27;20043;-54
2022/04/17 08:39:29;;;;;;;0.80;0.80;;;;;;;20.40;38.29;97955.88;10616809;27;20042;-56
2022/04/17 08:44:51;;;;;;;0.85;0.85;;;;;;;20.42;38.33;97956.38;10592530;27;20070;-54
2022/04/17 08:50:12;;;;;;;0.80;0.80;;;;;;;20.42;38.34;97956.38;10632787;27;20084;-56
2022/04/17 08:55:33;;;;;;;0.80;0.80;;;;;;;20.42;38.41;97948.25;10620662;27;20133;-52
2022/04/17 09:00:53;;;;;;;1.05;1.00;;;;;;;20.44;38.39;97951.47;10621060;27;20065;-56
2022/04/17 09:06:23;;;;;;;1.13;0.70;;;;;;;20.44;38.48;97949.56;10635124;27;20043;-54
2022/04/17 09:11:42;;;;;;;0.82;0.80;;;;;;;20.45;38.41;97950.38;10614959;27;20069;-53
2022/04/17 09:17:08;;;;;;;1.10;0.95;;;;;;;20.45;38.38;97937.63;10618579;28;20402;-56
2022/04/17 09:22:49;;;;;;;1.02;0.90;;;;;;;20.46;38.45;97933.81;10620804;28;20454;-55
2022/04/17 09:28:08;;;;;;;0.70;0.70;;;;;;;20.47;38.46;97935.44;10622239;27;20035;-55
2022/04/17 09:33:49;;;;;;;0.80;0.70;;;;;;;20.47;38.52;97934.63;10629426;27;20073;-55
2022/04/17 09:39:14;;;;;;;0.65;0.65;;;;;;;20.47;38.44;97927.31;10629012;27;20055;-55
2022/04/17 09:44:36;;;;;;;0.70;0.70;;;;;;;20.48;38.45;97922.69;10624337;27;20051;-55
2022/04/17 09:50:05;;;;;;;0.75;0.75;;;;;;;20.48;38.57;97923.50;10628866;27;20505;-56
2022/04/17 10:00:58;;;;;;;0.80;0.80;;;;;;;20.49;38.50;97916.19;8660681;26;20064;-79
2022/04/17 10:06:17;;;;;;;0.80;0.80;;;;;;;20.49;38.78;97910.78;10337135;28;20038;-79
2022/04/17 10:11:37;;;;;;;0.75;0.70;;;;;;;20.49;38.75;97910.78;10349931;28;20050;-79
2022/04/17 10:16:58;;;;;;;0.88;0.80;;;;;;;20.49;38.61;97908.06;10336611;28;20058;-79
2022/04/17 10:22:20;;;;;;;1.08;0.80;;;;;;;20.49;38.72;97891.81;10336371;28;20503;-80
2022/04/17 10:27:41;;;;;;;0.70;0.70;;;;;;;20.48;38.66;97891.03;10337040;28;20406;-80
2022/04/17 10:33:19;;;;;;;0.93;0.88;;;;;;;20.47;38.65;97870.47;10349842;28;20049;-80
2022/04/17 10:39:09;;;;;;;0.93;0.82;;;;;;;20.46;38.71;97874.25;10349542;28;20039;-80
2022/04/17 10:44:31;;;;;;;0.70;0.70;;;;;;;20.47;38.58;97866.97;10335573;28;20038;-79
2022/04/17 10:50:00;;;;;;;0.85;0.85;;;;;;;20.44;38.65;97871.06;10335085;28;20038;-80
2022/04/17 10:55:20;;;;;;;1.23;0.90;;;;;;;20.45;38.65;97861.06;10322388;28;20050;-80
2022/04/17 11:00:49;;;;;;;0.95;0.90;;;;;;;20.45;38.69;97850.22;10321414;28;20413;-80
2022/04/17 11:06:35;;;;;;;1.17;0.77;;;;;;;20.44;38.69;97838.59;10335420;28;20555;-80
2022/04/17 11:12:28;;;;;;;0.82;0.70;;;;;;;20.44;38.74;97840.50;10320321;28;20060;-79
2022/04/17 11:17:49;;;;;;;0.70;0.68;;;;;;;20.44;38.76;97832.38;10320238;28;20127;-79
2022/04/17 11:23:10;;;;;;;0.50;0.50;;;;;;;20.44;38.70;97840.50;10320584;28;20117;-79
2022/04/17 11:28:33;;;;;;;0.75;0.68;;;;;;;20.43;38.92;97830.78;10333913;28;20066;-80
2022/04/17 11:34:00;;;;;;;0.80;0.80;;;;;;;20.42;38.89;97816.44;10348090;28;20053;-80
2022/04/17 11:39:26;;;;;;;1.00;0.68;;;;;;;20.42;38.97;97808.31;10347051;28;20691;-80
2022/04/17 11:44:50;;;;;;;1.80;0.70;;;;;;;20.43;39.00;97801.03;10333249;28;20252;-80
2022/04/17 11:50:12;;;;;;;0.75;0.75;;;;;;;20.42;38.99;97802.91;10319509;28;20042;-80
2022/04/17 11:55:35;;;;;;;0.63;0.63;;;;;;;20.42;38.90;97807.53;10346595;28;20130;-80
2022/04/17 12:00:59;;;;;;;0.70;0.70;;;;;;;20.42;39.11;97804.81;10321507;28;20062;-80
2022/04/17 12:06:25;;;;;;;0.68;0.68;;;;;;;20.42;39.03;97799.41;10332480;28;20042;-80
2022/04/17 12:11:47;;;;;;;1.02;0.80;;;;;;;20.42;39.08;97783.16;10335542;28;20038;-80
2022/04/17 12:17:06;;;;;;;1.30;0.73;;;;;;;20.43;39.14;97771.25;10345730;28;20042;-79
2022/04/17 12:22:26;;;;;;;0.95;0.80;;;;;;;20.42;39.01;97775.03;10331886;28;20463;-79
2022/04/17 12:27:47;;;;;;;1.25;0.80;;;;;;;20.41;39.23;97768.03;10345265;28;20092;-80
2022/04/17 12:33:27;;;;;;;0.60;0.60;;;;;;;20.40;39.08;97764.50;10331639;28;20382;-80
2022/04/17 12:38:57;;;;;;;0.80;0.68;;;;;;;20.40;39.04;97756.41;10332543;28;20061;-80
2022/04/17 12:44:36;;;;;;;0.68;0.65;;;;;;;20.39;39.09;97756.72;10331210;28;20042;-79
2022/04/17 12:50:04;;;;;;;0.60;0.60;;;;;;;20.38;39.09;97747.78;10343477;28;20543;-80
2022/04/17 12:55:34;;;;;;;0.60;0.60;;;;;;;20.38;39.05;97736.97;10330829;28;20767;-80
2022/04/17 13:00:56;;;;;;;0.65;0.65;;;;;;;20.37;39.17;97735.38;10320424;28;20578;-80
2022/04/17 13:06:22;;;;;;;1.42;0.68;;;;;;;20.36;39.00;97728.34;10329936;28;20035;-80
2022/04/17 13:11:50;;;;;;;0.60;0.60;;;;;;;20.37;39.09;97723.75;10330071;28;20452;-80
2022/04/17 13:17:11;;;;;;;0.68;0.68;;;;;;;20.34;39.17;97701.59;10344291;28;20101;-81
2022/04/17 13:22:30;;;;;;;0.70;0.70;;;;;;;20.35;39.32;97694.28;10343794;28;20046;-80
2022/04/17 13:27:50;;;;;;;0.60;0.60;;;;;;;20.35;39.18;97694.28;10329821;28;20050;-79
2022/04/17 13:33:10;;;;;;;0.50;0.50;;;;;;;20.35;39.10;97686.97;10344353;28;20397;-79
2022/04/17 13:38:30;;;;;;;0.55;0.55;;;;;;;20.34;39.24;97679.94;10343460;28;20043;-80
2022/04/17 13:43:50;;;;;;;0.60;0.60;;;;;;;20.34;39.32;97671.81;10302767;28;20515;-79
2022/04/17 13:49:10;;;;;;;0.57;0.57;;;;;;;20.35;39.18;97659.13;10338133;28;20039;-79
2022/04/17 13:54:29;;;;;;;0.52;0.52;;;;;;;20.34;39.46;97655.59;10316054;28;20121;-79
2022/04/17 13:59:49;;;;;;;0.55;0.55;;;;;;;20.34;39.57;97641.25;10332384;28;20065;-79
2022/04/17 14:05:09;;;;;;;0.77;0.63;;;;;;;20.33;39.48;97635.06;10342675;28;20038;-80
2022/04/17 14:10:28;;;;;;;0.55;0.55;;;;;;;20.34;39.48;97633.16;10332975;28;20500;-80
2022/04/17 14:15:48;;;;;;;0.75;0.50;;;;;;;20.33;39.58;97624.22;10332112;28;20586;-80
2022/04/17 14:21:07;;;;;;;0.60;0.60;;;;;;;20.33;39.66;97616.13;10336012;28;20502;-80
2022/04/17 14:26:27;;;;;;;0.50;0.50;;;;;;;20.34;39.72;97612.28;10334735;28;20054;-80
2022/04/17 14:31:46;;;;;;;0.50;0.50;;;;;;;20.36;39.80;97593.03;10329255;28;20473;-79
2022/04/17 14:37:06;;;;;;;0.50;0.50;;;;;;;20.37;39.74;97583.03;10327405;28;20042;-80
2022/04/17 14:42:25;;;;;;;0.45;0.45;;;;;;;20.39;39.80;97587.03;10337031;28;20042;-80
2022/04/17 14:47:44;;;;;;;0.60;0.60;;;;;;;20.41;39.80;97575.91;10344410;28;20046;-80
2022/04/17 14:53:03;;;;;;;0.60;0.60;;;;;;;20.41;39.87;97567.78;10310580;28;20038;-80
2022/04/17 14:58:24;;;;;;;0.55;0.55;;;;;;;20.40;39.64;97563.47;10340712;28;20058;-80
2022/04/17 15:03:44;;;;;;;0.70;0.70;;;;;;;20.41;39.81;97552.31;10347928;28;20046;-80
2022/04/17 15:09:04;;;;;;;0.50;0.50;;;;;;;20.41;39.96;97555.03;10347721;28;20053;-80
2022/04/17 15:14:23;;;;;;;0.52;0.52;;;;;;;20.42;39.72;97547.72;10305671;28;20050;-79
2022/04/17 15:19:43;;;;;;;0.60;0.60;;;;;;;20.42;39.79;97537.66;10298387;28;20038;-79
2022/04/17 15:25:06;;;;;;;0.50;0.50;;;;;;;20.43;39.84;97522.25;10333019;28;20046;-79
2022/04/17 15:30:27;;;;;;;0.50;0.50;;;;;;;20.44;39.83;97504.88;10317317;28;20125;-79
2022/04/17 15:35:46;;;;;;;0.50;0.50;;;;;;;20.44;39.86;97505.69;10346489;28;20042;-79
2022/04/17 15:41:06;;;;;;;0.50;0.50;;;;;;;20.45;40.19;97504.59;10347292;28;20493;-80
2022/04/17 15:52:04;;;;;;;;;;;;;;;20.48;40.02;97492.31;10332782;28;20485;-80
2022/04/17 15:57:24;;;;;;;0.30;0.30;;;;;;;20.49;39.92;97489.31;10324475;28;19921;-80
2022/04/17 16:02:44;;;;;;;0.40;0.40;;;;;;;20.50;39.85;97490.91;10345179;28;20122;-80
2022/04/17 16:08:04;;;;;;;0.55;0.55;;;;;;;20.50;39.94;97480.09;10345345;28;20505;-80
2022/04/17 16:13:23;;;;;;;0.40;0.40;;;;;;;20.50;39.91;97482.81;10346601;28;20038;-80
2022/04/17 16:18:43;;;;;;;0.50;0.50;;;;;;;20.50;39.95;97481.97;10331160;28;20042;-80
2022/04/17 16:24:03;;;;;;;0.60;0.60;;;;;;;20.51;39.98;97475.47;10331488;28;20046;-80
2022/04/17 16:29:23;;;;;;;0.50;0.50;;;;;;;20.50;39.98;97477.38;10345073;28;20077;-79
2022/04/17 16:34:42;;;;;;;0.50;0.50;;;;;;;20.50;40.05;97474.69;10330676;28;20404;-80
2022/04/17 16:40:03;;;;;;;0.30;0.30;;;;;;;20.51;39.76;97476.25;10323771;28;20544;-79
2022/04/17 16:45:23;;;;;;;0.60;0.60;;;;;;;20.49;39.91;97480.41;10343173;28;20045;-79
2022/04/17 16:50:43;;;;;;;0.40;0.40;;;;;;;20.47;40.06;97474.50;10331107;28;20082;-80
2022/04/17 16:56:04;;;;;;;0.40;0.40;;;;;;;20.47;39.94;97477.22;10329472;28;20038;-80
2022/04/17 17:01:23;;;;;;;0.40;0.40;;;;;;;20.45;39.89;97463.97;10331531;28;20567;-79
2022/04/17 17:06:42;;;;;;;0.85;0.85;;;;;;;20.41;35.61;97476.56;10323498;28;20397;-80
2022/04/17 17:12:03;;;;;;;1.75;1.10;;;;;;;20.27;33.42;97471.25;10333565;28;20138;-79
2022/04/17 17:17:22;;;;;;;1.13;0.80;;;;;;;20.26;36.52;97468.84;10325318;28;20054;-79
2022/04/17 17:22:42;;;;;;;1.17;0.88;;;;;;;20.25;36.34;97472.69;10323380;28;20089;-79
2022/04/17 17:28:07;;;;;;;2.67;0.90;;;;;;;20.24;36.87;97465.66;10327275;28;20514;-79
2022/04/17 17:33:28;;;;;;;1.05;0.95;;;;;;;20.22;36.00;97467.88;10340735;28;20425;-79
2022/04/17 17:38:48;;;;;;;5.40;1.58;;;;;;;20.20;34.60;97468.19;10305536;28;20417;-80
2022/04/17 17:44:07;;;;;;;2.55;1.55;;;;;;;20.18;33.81;97469.63;10329772;28;20412;-79
2022/04/17 17:49:27;;;;;;;5.32;1.90;;;;;;;20.15;33.29;97471.06;10334135;28;20038;-79
2022/04/17 17:54:49;;;;;;;4.45;1.77;;;;;;;20.11;32.86;97470.03;10331276;28;20428;-79
2022/04/17 18:00:09;;;;;;;5.20;2.00;;;;;;;20.07;32.51;97472.59;10315299;28;20072;-79
2022/04/17 18:05:29;;;;;;;2.85;1.85;;;;;;;20.03;32.49;97476.22;10328570;28;20034;-79
2022/04/17 18:16:27;;;;;;;2.83;2.20;;;;;;;19.99;32.24;97486.06;10331654;28;20046;-80
2022/04/17 18:21:47;;;;;;;3.08;1.95;;;;;;;19.95;32.16;97488.59;10345768;28;20038;-79
2022/04/17 18:27:07;;;;;;;3.50;1.90;;;;;;;19.93;31.84;97485.41;10323154;28;20050;-79
2022/04/17 18:32:27;;;;;;;3.35;1.90;;;;;;;19.90;31.69;97494.16;10348011;28;20070;-80
2022/04/17 18:37:47;;;;;;;3.70;1.88;;;;;;;19.87;31.42;97490.13;10334230;28;20057;-79
2022/04/17 18:43:07;;;;;;;3.05;2.42;;;;;;;19.84;31.22;97496.16;10345228;28;20404;-79
2022/04/17 18:48:27;;;;;;;8.05;5.07;;;;;;;19.81;30.88;97504.88;10344149;28;20042;-79
2022/04/17 18:53:47;;;;;;;4.35;3.08;;;;;;;19.78;31.08;97505.53;10332531;28;20081;-79
2022/04/17 18:59:06;;;;;;;3.67;2.50;;;;;;;19.74;30.43;97508.03;10321761;28;20501;-79
2022/04/17 19:04:26;;;;;;;3.45;2.70;;;;;;;19.71;30.42;97511.34;10318410;28;20047;-79
2022/04/17 19:09:45;;;;;;;3.20;2.60;;;;;;;19.68;30.12;97497.59;10330230;28;20043;-79
2022/04/17 19:15:05;;;;;;;3.63;2.15;;;;;;;19.65;29.85;97495.53;10321246;28;20365;-79
2022/04/17 19:20:25;;;;;;;3.20;2.30;;;;;;;19.61;29.88;97498.06;10330511;28;20046;-78
2022/04/17 19:25:44;;;;;;;2.20;1.90;;;;;;;19.58;29.85;97487.06;10328475;28;20038;-79
2022/04/17 19:36:43;;;;;;;3.13;2.17;;;;;;;19.52;29.58;97470.16;10320039;28;20054;-79
2022/04/17 19:42:06;;;;;;;2.15;1.90;;;;;;;19.50;29.25;97475.06;10335932;28;20347;-79
2022/04/17 19:47:26;;;;;;;3.13;1.90;;;;;;;19.45;29.40;97470.59;10310972;28;20686;-79
2022/04/17 19:52:47;;;;;;;3.17;2.28;;;;;;;19.43;29.23;97464.69;10324421;28;20042;-79
2022/04/17 19:58:07;;;;;;;2.40;2.03;;;;;;;19.40;29.15;97459.91;10337007;28;20113;-79
2022/04/17 20:03:26;;;;;;;3.63;2.30;;;;;;;19.36;29.08;97457.00;10317377;28;20493;-79
2022/04/17 20:08:46;;;;;;;3.53;2.60;;;;;;;19.35;29.14;97454.63;10328438;28;20034;-79
2022/04/17 20:14:05;;;;;;;3.50;2.80;;;;;;;19.33;29.09;97454.16;10308829;28;20047;-79
2022/04/17 20:19:25;;;;;;;3.33;2.40;;;;;;;19.29;28.80;97450.47;10305272;28;20053;-79
2022/04/17 20:24:45;;;;;;;3.13;2.20;;;;;;;19.26;28.90;97446.44;10323796;28;20122;-79
2022/04/17 20:30:10;;;;;;;3.97;2.40;;;;;;;19.25;28.77;97441.34;10321854;28;20503;-79
2022/04/17 20:35:29;;;;;;;3.50;2.25;;;;;;;19.21;28.63;97441.19;10343352;28;20065;-79
2022/04/17 20:40:52;;;;;;;2.78;2.50;;;;;;;19.17;28.55;97440.19;10314750;28;20042;-79
2022/04/17 20:51:49;;;;;;;4.17;3.03;;;;;;;19.11;28.80;97436.81;10294499;28;20060;-79
2022/04/17 20:57:08;;;;;;;3.90;2.92;;;;;;;19.09;28.84;97427.41;10297751;28;20753;-79
2022/04/17 21:02:28;;;;;;;3.55;3.10;;;;;;;19.08;28.74;97426.63;10312603;28;20047;-79
2022/04/17 21:07:47;;;;;;;3.63;2.90;;;;;;;19.09;29.08;97427.41;10342317;28;20113;-79
2022/04/17 21:13:07;;;;;;;3.95;2.85;;;;;;;19.09;28.82;97425.53;10322872;28;20058;-79
2022/04/17 21:18:27;;;;;;;3.92;3.45;;;;;;;19.09;28.75;97419.31;10298989;28;20042;-80
2022/04/17 21:23:47;;;;;;;3.45;2.90;;;;;;;19.09;28.70;97409.31;10328988;28;20154;-79
2022/04/17 21:29:07;;;;;;;4.30;3.45;;;;;;;19.09;28.48;97413.91;10324952;28;20109;-80
2022/04/17 21:34:27;;;;;;;3.70;3.10;;;;;;;19.08;28.56;97409.63;10333797;28;20046;-80
2022/04/17 21:39:46;;;;;;;3.20;2.80;;;;;;;19.07;28.62;97408.00;10346689;28;20088;-80
2022/04/17 21:45:07;;;;;;;3.72;2.70;;;;;;;19.05;28.49;97397.53;10336316;28;20046;-79
2022/04/17 21:50:27;;;;;;;3.65;2.67;;;;;;;19.02;28.27;97395.44;10308717;28;20043;-80
2022/04/17 21:55:46;;;;;;;2.78;2.40;;;;;;;19.01;28.34;97388.44;10334357;28;20129;-79
2022/04/17 22:06:45;;;;;;;3.53;2.70;;;;;;;18.94;28.32;97386.16;10334477;28;20047;-79
2022/04/17 22:12:06;;;;;;;2.33;2.13;;;;;;;18.93;28.31;97381.06;10335776;28;20046;-79
2022/04/17 22:17:25;;;;;;;3.35;2.47;;;;;;;18.90;28.18;97379.00;10346449;28;20504;-79
2022/04/17 22:22:45;;;;;;;2.58;2.30;;;;;;;18.89;27.98;97385.47;10346857;28;20117;-79
2022/04/17 22:28:04;;;;;;;3.33;2.17;;;;;;;18.85;28.08;97368.28;10334445;28;20089;-79
2022/04/17 22:33:24;;;;;;;2.72;2.30;;;;;;;18.83;27.75;97373.22;10320669;28;20080;-79
2022/04/17 22:38:44;;;;;;;4.03;2.50;;;;;;;18.82;27.86;97368.91;10346258;28;20058;-79
2022/04/17 22:44:04;;;;;;;2.63;2.22;;;;;;;18.80;27.62;97361.13;10334568;28;20053;-79
2022/04/17 22:49:24;;;;;;;2.42;2.22;;;;;;;18.76;27.69;97360.91;10320080;28;20119;-79
2022/04/17 22:54:45;;;;;;;2.83;2.25;;;;;;;18.73;27.76;97366.91;10332748;28;20069;-79
2022/04/17 23:01:10;;;;;;;3.33;2.20;;;;;;;18.70;27.96;97355.91;10336618;28;20054;-80
2022/04/17 23:05:46;;;;;;;2.83;2.20;;;;;;;18.67;27.65;97351.13;10329838;28;20034;-79
2022/04/17 23:11:06;;;;;;;2.58;2.15;;;;;;;18.63;27.63;97342.84;10347147;28;20477;-80
2022/04/17 23:16:26;;;;;;;2.35;2.10;;;;;;;18.61;27.40;97336.97;10347373;28;20544;-79
2022/04/17 23:21:45;;;;;;;2.55;2.08;;;;;;;18.56;27.45;97335.19;10329989;28;20140;-79
2022/04/17 23:27:04;;;;;;;2.50;2.22;;;;;;;18.53;27.61;97324.19;10341250;28;20034;-79
2022/04/17 23:32:24;;;;;;;4.00;2.70;;;;;;;18.53;27.61;97324.19;10345196;28;20043;-80
2022/04/17 23:37:44;;;;;;;2.85;2.38;;;;;;;18.48;27.61;97318.91;10331672;28;20051;-79
2022/04/17 23:43:04;;;;;;;3.28;2.50;;;;;;;18.43;27.47;97313.63;10340936;28;20045;-79
2022/04/17 23:48:24;;;;;;;2.70;2.10;;;;;;;18.40;27.59;97315.03;10345723;28;20077;-79
2022/04/17 23:53:44;;;;;;;3.20;2.03;;;;;;;18.37;27.48;97313.75;10346658;28;20481;-79
2022/04/17 23:59:03;;;;;;;3.20;2.28;;;;;;;18.35;27.57;97307.06;10333961;28;20054;-79
